Portlaw, Ireland
Current Conditions -  °F | °C
As of 1:00 PM on Friday 31 Oct 2014 (Local Time) from EIWF Reporting Station
Broken Clouds Broken Clouds  
Wind Chill: 61°   Ceiling: 900
Heat Index: 61°   Visibility: 4mi
Dew Point: 59°   Wind: 22mph
Humidity: 94%   Direction: 200°SSW
Pressure: 29.71"   Gusts: NA
Location:  52.29°N, 7.31°W
Report Text: EIWF 311200Z 20019KT 180V240 6000 BKN009 16/15 Q1006 R21/1/////
Loading
Personal Weather Stations






























Interactive Weather Map
Tropical Storm Tracking
New forecast layout! Learn more

10-Day Weather Forecast

Advertisements
Track Severe Weather on mobile